Nearby METAR Reports

 

KCPC - Whiteville, North Carolina, USA
Distance from station: NNE 17mi, 28km
Updated: 05/26/2018 1:15pm
Clear
Clear
 Wind from SSE
Wind: SSE 13 mph , 20 km/h, Gust: 17 mph , 28 km/h
Temperature: 84°F , 29°C
Heat Index: 89°F , 32°C
Dew Point: 72°F , 22°C
Humidity: 66%
Barometer: 29.98 inHg , 1015.2 hPa
Clouds: Clear
Visibility: 10 miles , 16 km
2018/05/26 17:15 KCPC 261715Z AUTO 15011G15KT 110V180 10SM CLR 29/22 A2998 RMK AO2 T02940218
KCRE - North Myrtle Bea, South Carolina, USA
Distance from station: SSE 19mi, 31km
Updated: 05/26/2018 12:53pm
Partly cloudy
Partly cloudy
 Wind from S
Wind: S 13 mph , 20 km/h, Gust: 21 mph , 33 km/h
Temperature: 82°F , 28°C
Heat Index: 87°F , 31°C
Dew Point: 73°F , 23°C
Humidity: 74%
Barometer: 30.00 inHg , 1015.9 hPa
Clouds: Partly cloudy
Visibility: 10 miles , 16 km
Cloud details: Partly cloudy 3000 ft
2018/05/26 16:53 KCRE 261653Z 19011G18KT 10SM SCT030 28/23 A3000 RMK AO1 SLP161 T02780233
 
KHYW - Conway-Horry Cty, South Carolina, USA
Distance from station: SW 22mi, 35km
Updated: 12/31/1969 7:00pm
NOT Current
unable to load KHYW data RC=404 Not Found
unable to load KHYW data RC=404 Not Found
 
KMAO - Marion, South Carolina, USA
Distance from station: WNW 28mi, 45km
Updated: 05/26/2018 1:35pm
Haze, Mostly cloudy
Haze, Mostly cloudy
 Wind from SSW
Wind: SSW 8 mph , 13 km/h
Temperature: 84°F , 29°C
Heat Index: 87°F , 31°C
Dew Point: 68°F , 20°C
Humidity: 58%
Barometer: 29.97 inHg , 1014.9 hPa
Summary: Haze
Clouds: Mostly cloudy
Visibility: 5 miles , 8 km
Cloud details: Mostly cloudy 3900 ft
Mostly cloudy 4900 ft
2018/05/26 17:35 KMAO 261735Z AUTO 21007KT 190V260 5SM HZ BKN039 BKN049 29/20 A2997 RMK AO2
 
KMYR - Myrtle Beach, South Carolina, USA
Distance from station: S 28mi, 45km
Updated: 12/31/1969 7:00pm
NOT Current
unable to load KMYR data RC=404 Not Found
unable to load KMYR data RC=404 Not Found
 
KLBT - Lumberton, North Carolina, USA
Distance from station: NNW 39mi, 62km
Updated: 05/26/2018 12:54pm
Partly cloudy
Partly cloudy
 Wind from SW
Wind: SW 9 mph , 15 km/h
Temperature: 88°F , 31°C
Heat Index: 92°F , 33°C
Dew Point: 68°F , 20°C
Humidity: 52%
Barometer: 29.96 inHg , 1014.6 hPa
Clouds: Partly cloudy
Visibility: 10 miles , 16 km
Cloud details: Few Clouds 3700 ft
Partly cloudy 4800 ft
2018/05/26 16:54 KLBT 261654Z AUTO 23008KT 10SM FEW037 SCT048 31/20 A2996 RMK AO2 SLP143 T03110200
 
KSUT - Southport, North Carolina, USA
Distance from station: E 46mi, 74km
Updated: 05/26/2018 1:20pm
Partly cloudy
Partly cloudy
 Wind from SSW
Wind: SSW 12 mph , 19 km/h
Temperature: 82°F , 28°C
Heat Index: 86°F , 30°C
Dew Point: 72°F , 22°C
Humidity: 70%
Barometer: 30.02 inHg , 1016.6 hPa
Clouds: Partly cloudy
Visibility: 10 miles , 16 km
Cloud details: Partly cloudy 1700 ft
Partly cloudy 2400 ft
2018/05/26 17:20 KSUT 261720Z AUTO 21010KT 10SM SCT017 SCT024 28/22 A3002 RMK AO2 T02800224
KFLO - Florence, South Carolina, USA
Distance from station: W 50mi, 81km
Updated: 05/26/2018 12:53pm
Few Clouds
Few Clouds
 Wind from SSW
Wind: SSW 6 mph , 9 km/h
Temperature: 84°F , 29°C
Heat Index: 88°F , 31°C
Dew Point: 70°F , 21°C
Humidity: 62%
Barometer: 29.97 inHg , 1014.9 hPa
Clouds: Few Clouds
Visibility: 10 miles , 16 km
Cloud details: Few Clouds 2000 ft
Few Clouds 3700 ft
2018/05/26 16:53 KFLO 261653Z 21005KT 10SM FEW020 FEW037 29/21 A2997 RMK AO2 RAB24E36 SLP146 P0000 T02940211